Time;durP1;ratioP1;P1;durP2;ratioP2;P2;SDS_P1;SDS_P2;PMS_P1;PMS_P2;Temp;Humidity;BMP_temperature;BMP_pressure;BME280_temperature;BME280_humidity;BME280_pressure;Samples;Min_cycle;Max_cycle;Signal;HPM_P1;HPM_P2
2021/01/08 00:02:01;;;;;;;19.05;13.27;;;;;;;6.58;70.14;94555.63;5013910;28;20029;-79
2021/01/08 00:04:27;;;;;;;15.70;12.52;;;;;;;6.58;69.79;94549.69;5016249;28;20054;-77
2021/01/08 00:06:55;;;;;;;22.13;14.38;;;;;;;6.65;69.49;94560.72;5010502;28;20429;-77
2021/01/08 00:09:21;;;;;;;18.90;12.70;;;;;;;6.68;69.58;94549.22;5012284;28;20030;-79
2021/01/08 00:11:56;;;;;;;27.20;14.27;;;;;;;6.63;69.38;94558.38;4994880;28;20041;-77
2021/01/08 00:14:30;;;;;;;19.58;14.02;;;;;;;6.67;69.51;94557.94;4997485;28;20104;-78
2021/01/08 00:17:05;;;;;;;20.83;13.43;;;;;;;6.60;70.11;94540.72;5014969;28;20042;-78
2021/01/08 00:19:30;;;;;;;18.35;13.48;;;;;;;6.63;69.76;94548.03;5004179;28;20448;-78
2021/01/08 00:21:56;;;;;;;22.42;13.88;;;;;;;6.66;69.61;94544.22;5019220;28;20113;-78
2021/01/08 00:24:21;;;;;;;20.02;13.15;;;;;;;6.62;69.85;94541.28;5014018;28;20037;-78
2021/01/08 00:26:48;;;;;;;21.42;14.02;;;;;;;6.68;69.88;94549.22;5011837;28;20125;-80
2021/01/08 00:29:14;;;;;;;18.73;13.43;;;;;;;6.60;70.28;94545.88;5011914;28;20069;-77
2021/01/08 00:31:41;;;;;;;17.38;13.18;;;;;;;6.64;69.21;94538.50;5012489;28;20034;-78
2021/01/08 00:34:06;;;;;;;19.92;12.63;;;;;;;6.67;69.28;94552.75;5013672;28;20049;-78
2021/01/08 00:36:32;;;;;;;15.43;12.60;;;;;;;6.70;69.17;94536.88;5014463;28;20133;-78
2021/01/08 00:38:58;;;;;;;21.27;13.65;;;;;;;6.67;69.89;94542.44;5010258;28;20034;-77
2021/01/08 00:41:30;;;;;;;16.50;11.90;;;;;;;6.74;69.42;94543.97;5011425;28;20037;-77
2021/01/08 00:44:02;;;;;;;17.48;12.07;;;;;;;6.79;69.70;94548.47;4993333;28;20176;-79
2021/01/08 00:46:34;;;;;;;19.02;12.57;;;;;;;6.84;69.79;94546.06;5009770;28;20030;-76
2021/01/08 00:49:04;;;;;;;22.27;12.00;;;;;;;6.89;69.17;94552.16;5009872;28;20033;-78
2021/01/08 00:51:29;;;;;;;16.67;11.95;;;;;;;6.92;69.40;94556.09;4993264;28;20041;-77
2021/01/08 00:53:55;;;;;;;16.63;11.88;;;;;;;6.98;68.39;94555.22;5008920;28;20038;-77
2021/01/08 00:56:27;;;;;;;17.63;12.40;;;;;;;7.00;68.91;94548.09;5010199;28;20038;-77
2021/01/08 00:58:59;;;;;;;22.40;11.40;;;;;;;6.94;69.09;94528.25;4992717;28;20556;-77
2021/01/08 01:01:25;;;;;;;14.10;11.82;;;;;;;6.94;69.36;94538.59;5006659;28;20124;-77
2021/01/08 01:03:50;;;;;;;17.10;10.80;;;;;;;7.05;68.38;94537.09;5009992;28;20116;-77
2021/01/08 01:06:25;;;;;;;17.80;13.23;;;;;;;7.09;68.64;94531.25;5009708;28;20032;-77
2021/01/08 01:08:51;;;;;;;18.10;12.38;;;;;;;7.07;67.93;94543.63;5009632;28;20030;-77
2021/01/08 01:11:17;;;;;;;17.38;12.45;;;;;;;7.06;69.06;94557.53;5009810;28;20517;-77
2021/01/08 01:13:44;;;;;;;16.00;10.20;;;;;;;7.14;68.47;94533.19;5006441;28;20124;-77
2021/01/08 01:16:10;;;;;;;16.73;9.95;;;;;;;7.12;67.96;94528.22;5007552;28;20486;-77
2021/01/08 01:18:36;;;;;;;13.18;9.30;;;;;;;7.11;68.49;94554.31;5009546;28;20033;-77
2021/01/08 01:21:01;;;;;;;12.15;9.88;;;;;;;7.07;67.86;94533.28;5009328;28;20038;-78
2021/01/08 01:23:26;;;;;;;12.20;9.13;;;;;;;7.08;67.93;94540.03;5008046;28;20029;-77
2021/01/08 01:25:52;;;;;;;12.98;8.52;;;;;;;7.08;68.75;94534.84;5008194;28;20514;-77
2021/01/08 01:28:17;;;;;;;15.23;9.80;;;;;;;7.14;67.61;94531.38;5009247;28;20034;-77
2021/01/08 01:31:07;;;;;;;10.45;9.32;;;;;;;7.15;68.57;94524.41;5008995;28;20490;-77
2021/01/08 01:33:33;;;;;;;14.15;10.60;;;;;;;7.13;67.98;94524.63;5008204;28;20041;-78
2021/01/08 01:35:58;;;;;;;13.15;9.80;;;;;;;7.13;67.58;94527.22;5011570;28;20042;-78
2021/01/08 01:38:24;;;;;;;12.70;9.50;;;;;;;7.18;67.40;94519.63;5011814;28;20045;-78
2021/01/08 01:40:49;;;;;;;12.40;9.18;;;;;;;7.16;67.83;94519.06;5011727;28;20499;-78
2021/01/08 01:43:15;;;;;;;10.68;9.23;;;;;;;7.14;67.44;94508.13;5009802;28;20034;-78
2021/01/08 01:45:46;;;;;;;11.20;9.30;;;;;;;7.12;67.08;94520.47;5009598;28;20100;-78
2021/01/08 01:48:12;;;;;;;12.85;9.50;;;;;;;7.12;67.58;94512.72;4994415;28;20120;-77
2021/01/08 01:50:38;;;;;;;11.65;9.18;;;;;;;7.09;67.02;94510.56;5013192;28;20675;-78
2021/01/08 01:53:03;;;;;;;11.40;8.52;;;;;;;7.08;67.78;94524.50;5009547;28;20503;-77
2021/01/08 01:55:29;;;;;;;9.40;8.30;;;;;;;7.07;68.01;94519.56;5010511;28;20409;-78
2021/01/08 01:57:55;;;;;;;12.13;8.57;;;;;;;7.08;67.72;94497.88;4977924;28;20042;-78
2021/01/08 02:00:20;;;;;;;10.13;8.48;;;;;;;7.04;67.79;94518.19;4993832;28;20029;-78
2021/01/08 02:02:49;;;;;;;10.30;7.97;;;;;;;7.00;68.30;94513.69;5010917;28;20121;-78
2021/01/08 02:05:14;;;;;;;11.38;9.20;;;;;;;7.05;67.65;94504.25;4994298;28;20420;-78
2021/01/08 02:07:47;;;;;;;12.27;9.55;;;;;;;6.99;67.89;94510.28;5014945;28;20029;-78
2021/01/08 02:10:12;;;;;;;10.88;9.20;;;;;;;7.01;67.91;94497.94;5019009;28;20026;-78
2021/01/08 02:12:38;;;;;;;15.65;12.20;;;;;;;6.92;68.50;94507.00;5015575;28;20034;-78
2021/01/08 02:15:04;;;;;;;14.70;10.90;;;;;;;6.99;68.09;94488.81;4996661;28;20041;-78
2021/01/08 02:17:37;;;;;;;16.40;12.55;;;;;;;7.04;68.36;94497.50;4996925;28;20485;-79
2021/01/08 02:20:04;;;;;;;16.35;13.27;;;;;;;7.02;67.24;94502.13;4989107;28;20045;-78
2021/01/08 02:22:33;;;;;;;14.13;11.80;;;;;;;7.04;67.53;94482.00;5015311;28;20033;-78
2021/01/08 02:25:18;;;;;;;11.48;9.73;;;;;;;7.07;67.54;94475.59;5013407;28;20058;-78
2021/01/08 02:28:03;;;;;;;11.60;9.00;;;;;;;7.04;67.27;94486.38;5014814;28;20045;-78
2021/01/08 02:30:30;;;;;;;12.80;9.80;;;;;;;7.04;69.00;94481.22;5006412;28;20057;-78
2021/01/08 02:32:55;;;;;;;11.50;9.15;;;;;;;7.04;67.79;94460.53;5013894;28;20029;-78
2021/01/08 02:35:21;;;;;;;12.15;9.43;;;;;;;7.04;67.50;94469.06;5015408;28;20033;-78
2021/01/08 02:37:46;;;;;;;10.82;8.57;;;;;;;6.99;68.11;94457.78;5015814;28;20064;-78
2021/01/08 02:40:12;;;;;;;10.00;8.85;;;;;;;6.82;69.30;94448.03;5015947;28;20493;-78
2021/01/08 02:42:40;;;;;;;12.10;9.65;;;;;;;6.95;68.86;94441.16;5014267;28;20489;-78
2021/01/08 02:45:06;;;;;;;10.32;8.77;;;;;;;6.96;68.95;94443.50;5013267;28;20512;-78
2021/01/08 02:47:42;;;;;;;11.60;9.75;;;;;;;6.96;67.41;94433.16;5012928;28;20041;-78
2021/01/08 02:50:08;;;;;;;10.38;8.98;;;;;;;6.95;68.67;94449.69;5015832;28;20084;-78
2021/01/08 02:52:37;;;;;;;68.97;34.70;;;;;;;6.94;68.99;94453.28;4997721;28;20045;-78
2021/01/08 02:55:03;;;;;;;23.95;15.65;;;;;;;6.96;68.83;94429.81;4998531;28;20034;-78
2021/01/08 02:57:28;;;;;;;10.40;9.30;;;;;;;6.97;68.59;94434.75;4998024;28;20080;-78
2021/01/08 02:59:55;;;;;;;10.77;9.68;;;;;;;6.96;68.52;94428.00;4996879;28;20522;-78
2021/01/08 03:02:20;;;;;;;11.73;8.98;;;;;;;6.94;67.90;94435.19;4996674;28;20033;-78
2021/01/08 03:04:46;;;;;;;14.18;8.88;;;;;;;6.91;68.67;94441.59;4996425;28;20041;-78
2021/01/08 03:07:11;;;;;;;14.45;9.80;;;;;;;6.89;68.53;94427.31;5012437;28;20060;-78
2021/01/08 03:09:36;;;;;;;9.38;7.55;;;;;;;6.89;67.83;94422.94;4995941;28;20026;-78
2021/01/08 03:12:02;;;;;;;10.20;7.68;;;;;;;6.93;68.18;94428.44;5012494;28;20038;-78
2021/01/08 03:14:27;;;;;;;10.30;8.80;;;;;;;6.96;68.21;94433.16;4995043;28;20033;-78
2021/01/08 03:16:53;;;;;;;9.13;8.00;;;;;;;6.93;68.54;94413.72;4998320;28;20042;-78
2021/01/08 03:19:25;;;;;;;10.13;8.40;;;;;;;6.96;68.82;94433.16;5016609;28;20034;-78
2021/01/08 03:21:50;;;;;;;11.18;8.57;;;;;;;6.96;68.75;94422.03;5013861;28;20029;-78
2021/01/08 03:24:16;;;;;;;13.43;9.55;;;;;;;6.92;69.21;94421.69;5014471;28;20117;-78
2021/01/08 03:26:41;;;;;;;14.27;8.32;;;;;;;7.05;68.98;94411.19;5014806;28;20030;-78
2021/01/08 03:29:07;;;;;;;10.35;8.82;;;;;;;7.04;68.75;94414.78;5012894;28;20037;-78
2021/01/08 03:31:35;;;;;;;11.15;9.32;;;;;;;7.07;68.45;94406.59;5014280;28;20090;-77
2021/01/08 03:34:00;;;;;;;11.63;9.00;;;;;;;7.11;68.96;94414.69;4995524;28;20034;-78
2021/01/08 03:36:29;;;;;;;11.98;8.77;;;;;;;7.09;67.50;94401.19;5011051;28;20110;-78
2021/01/08 03:38:55;;;;;;;11.85;9.70;;;;;;;7.10;68.82;94408.72;4995285;28;20447;-78
2021/01/08 03:41:20;;;;;;;17.80;9.50;;;;;;;7.05;68.92;94395.69;5012283;28;20022;-78
2021/01/08 03:43:45;;;;;;;10.27;8.73;;;;;;;7.11;68.26;94389.63;5009609;28;20026;-77
2021/01/08 03:46:11;;;;;;;10.48;8.90;;;;;;;7.12;67.97;94386.03;5010494;28;20034;-78
2021/01/08 03:48:39;;;;;;;13.20;9.80;;;;;;;7.14;68.16;94394.34;5012091;28;20049;-78
2021/01/08 03:51:06;;;;;;;22.10;12.45;;;;;;;7.13;68.80;94377.25;4994096;28;20061;-77
2021/01/08 03:53:31;;;;;;;12.05;10.38;;;;;;;7.16;68.70;94392.34;5011359;28;20033;-78
2021/01/08 03:55:57;;;;;;;16.42;10.38;;;;;;;7.10;69.17;94366.56;5011082;28;20029;-77
2021/01/08 03:58:22;;;;;;;15.65;10.00;;;;;;;7.12;69.12;94364.56;5010212;28;20034;-78
2021/01/08 04:00:47;;;;;;;16.15;10.57;;;;;;;7.17;68.83;94365.50;5009268;28;20030;-77
2021/01/08 04:03:13;;;;;;;16.00;11.68;;;;;;;7.22;68.42;94355.25;4993190;28;20037;-77
2021/01/08 04:05:38;;;;;;;16.85;12.43;;;;;;;7.08;69.59;94359.03;5010964;28;20029;-77
2021/01/08 04:08:10;;;;;;;18.23;11.95;;;;;;;7.16;69.39;94350.97;5010653;28;20026;-78
2021/01/08 04:10:35;;;;;;;18.70;11.80;;;;;;;7.27;69.06;94349.41;4978029;28;20038;-77
2021/01/08 04:13:01;;;;;;;17.88;12.52;;;;;;;7.32;68.53;94343.56;5010212;28;20515;-77
2021/01/08 04:15:26;;;;;;;15.55;12.75;;;;;;;7.30;68.91;94340.41;5010697;28;20068;-77
2021/01/08 04:17:52;;;;;;;13.45;11.02;;;;;;;7.27;68.43;94340.88;5010445;28;20107;-77
2021/01/08 04:20:20;;;;;;;15.82;11.02;;;;;;;7.20;68.67;94339.19;5010803;28;20044;-77
2021/01/08 04:22:45;;;;;;;17.42;12.43;;;;;;;7.21;68.43;94325.25;5009378;28;20497;-77
2021/01/08 04:25:11;;;;;;;18.63;11.90;;;;;;;7.25;68.38;94332.56;5012432;28;20038;-81
2021/01/08 04:27:36;;;;;;;16.20;12.30;;;;;;;7.18;68.51;94302.41;5012681;28;20184;-79
2021/01/08 04:30:03;;;;;;;16.02;12.43;;;;;;;7.12;69.63;94318.81;5013551;28;20107;-79
2021/01/08 04:32:28;;;;;;;16.92;13.63;;;;;;;7.14;68.80;94290.94;5013264;28;20072;-80
2021/01/08 04:34:54;;;;;;;16.88;12.50;;;;;;;7.18;69.58;94304.22;5024935;28;20665;-81
2021/01/08 04:37:19;;;;;;;18.17;14.40;;;;;;;7.18;68.99;94297.25;5013976;28;20041;-79
2021/01/08 04:39:46;;;;;;;21.33;13.60;;;;;;;7.17;68.59;94293.09;5013038;28;20418;-80
2021/01/08 04:42:19;;;;;;;14.68;12.88;;;;;;;7.21;68.47;94301.97;5013014;28;20030;-78
2021/01/08 04:44:45;;;;;;;21.98;14.55;;;;;;;7.16;68.45;94293.31;4980859;28;20038;-79
2021/01/08 04:47:12;;;;;;;19.38;13.70;;;;;;;7.20;68.78;94310.75;5015153;28;20045;-78
2021/01/08 04:49:38;;;;;;;19.95;15.07;;;;;;;7.18;68.58;94302.41;4996435;28;20033;-79
2021/01/08 04:52:07;;;;;;;26.70;16.20;;;;;;;7.14;68.90;94290.94;5014368;28;20041;-78
2021/01/08 04:54:38;;;;;;;21.35;14.70;;;;;;;7.17;69.21;94295.69;4999164;28;20104;-79
2021/01/08 04:57:51;;;;;;;26.38;17.48;;;;;;;6.95;69.69;94255.84;5000925;28;20100;-78
2021/01/08 05:00:17;;;;;;;28.10;20.23;;;;;;;6.99;70.68;94287.97;4998450;28;20038;-78
2021/01/08 05:02:42;;;;;;;37.92;22.20;;;;;;;6.97;69.71;94282.25;5012930;28;20508;-78
2021/01/08 05:05:08;;;;;;;33.05;21.48;;;;;;;6.99;70.40;94282.81;5014321;28;20038;-78
2021/01/08 05:07:34;;;;;;;33.58;22.88;;;;;;;7.03;70.10;94286.53;5012272;28;20026;-78
2021/01/08 05:10:01;;;;;;;35.92;24.60;;;;;;;7.12;70.21;94294.75;5030101;28;20425;-79
2021/01/08 05:12:43;;;;;;;43.38;27.52;;;;;;;7.07;69.64;94294.63;5012791;28;20029;-81
2021/01/08 05:15:15;;;;;;;39.72;27.25;;;;;;;7.07;69.90;94289.47;5012125;28;20038;-80
2021/01/08 05:17:41;;;;;;;;;;;;;;;7.08;69.96;94281.50;4997417;28;20034;-80
2021/01/08 05:20:07;;;;;;;41.67;27.45;;;;;;;7.06;70.51;94291.25;5013932;28;19964;-80
2021/01/08 05:22:33;;;;;;;42.38;28.13;;;;;;;7.01;69.56;94295.53;4997825;28;20040;-81
2021/01/08 05:25:09;;;;;;;40.50;26.63;;;;;;;7.06;69.31;94306.00;4996247;28;20030;-80
2021/01/08 05:27:34;;;;;;;43.70;28.65;;;;;;;7.10;69.80;94286.44;5013040;28;20137;-78
2021/01/08 05:30:17;;;;;;;42.55;27.10;;;;;;;7.09;70.63;94270.13;5014111;28;20030;-79
2021/01/08 05:32:44;;;;;;;40.40;25.88;;;;;;;7.06;69.05;94280.91;4996062;28;20033;-84
2021/01/08 05:35:15;;;;;;;39.10;25.73;;;;;;;7.04;69.50;94279.56;4993175;28;20029;-78
2021/01/08 05:37:44;;;;;;;36.97;27.42;;;;;;;7.03;69.95;94278.00;5009273;28;20160;-78
2021/01/08 05:40:11;;;;;;;41.65;27.48;;;;;;;6.97;69.55;94277.06;5010784;28;20060;-78
2021/01/08 05:42:55;;;;;;;40.58;28.50;;;;;;;6.99;70.50;94282.81;5010594;28;20034;-77
2021/01/08 05:45:20;;;;;;;38.55;27.65;;;;;;;7.04;69.84;94285.53;5008155;28;20048;-78
2021/01/08 05:47:48;;;;;;;40.25;27.77;;;;;;;7.05;69.23;94284.53;5018690;28;20030;-78
2021/01/08 05:50:14;;;;;;;39.38;28.83;;;;;;;7.06;69.67;94278.34;5017599;28;20038;-79
2021/01/08 05:52:42;;;;;;;42.58;26.98;;;;;;;6.92;69.42;94276.97;5012124;28;20046;-79
2021/01/08 05:55:12;;;;;;;35.13;25.10;;;;;;;6.95;69.37;94294.59;4996963;28;20065;-80
2021/01/08 05:57:37;;;;;;;44.75;27.55;;;;;;;6.92;70.22;94279.53;5012133;28;20030;-79
2021/01/08 06:00:06;;;;;;;39.60;28.13;;;;;;;6.91;69.30;94258.09;5013400;28;20527;-79
2021/01/08 06:02:59;;;;;;;39.83;28.70;;;;;;;6.78;69.49;94247.16;5012454;28;20050;-79
2021/01/08 06:05:24;;;;;;;;;;;;;;;6.53;70.98;94253.28;5011837;28;20042;-79
2021/01/08 06:07:50;;;;;;;39.75;27.05;;;;;;;6.58;71.29;94266.31;5011719;28;19917;-79
2021/01/08 06:10:18;;;;;;;42.05;28.23;;;;;;;6.68;71.38;94270.19;5013386;28;20026;-80
2021/01/08 06:12:44;;;;;;;37.33;25.75;;;;;;;6.76;70.17;94267.25;5013074;28;20095;-78
2021/01/08 06:15:14;;;;;;;44.78;30.60;;;;;;;6.71;69.92;94255.00;5015309;28;20034;-78
2021/01/08 06:17:39;;;;;;;43.00;27.98;;;;;;;6.78;70.95;94265.25;4997095;28;20045;-78
2021/01/08 06:20:05;;;;;;;37.90;27.40;;;;;;;6.81;70.34;94264.78;5028679;28;20616;-78
2021/01/08 06:22:38;;;;;;;47.15;28.88;;;;;;;6.88;70.71;94270.66;4997300;28;20069;-78
2021/01/08 06:25:08;;;;;;;44.38;29.02;;;;;;;6.89;70.87;94256.72;5014650;28;20116;-80
2021/01/08 06:27:34;;;;;;;46.53;31.58;;;;;;;6.94;69.98;94249.09;4995374;28;20464;-78
2021/01/08 06:30:01;;;;;;;44.97;31.55;;;;;;;6.87;69.90;94238.09;5001743;28;20041;-78
2021/01/08 06:32:30;;;;;;;48.30;32.15;;;;;;;6.90;70.55;94250.56;5008764;28;20061;-77
2021/01/08 06:35:02;;;;;;;48.20;30.40;;;;;;;6.94;69.78;94249.09;4994806;28;20044;-79
2021/01/08 06:37:27;;;;;;;45.47;29.90;;;;;;;7.00;69.64;94261.16;5012800;28;20501;-79
2021/01/08 06:39:55;;;;;;;47.78;31.08;;;;;;;7.05;70.14;94256.09;5011090;28;20064;-78
2021/01/08 06:42:28;;;;;;;48.97;30.20;;;;;;;7.16;69.81;94246.78;4994609;28;20101;-79
2021/01/08 06:44:54;;;;;;;47.42;30.67;;;;;;;7.22;69.84;94269.13;4979534;28;20038;-78
2021/01/08 06:47:21;;;;;;;46.95;31.27;;;;;;;7.30;69.56;94260.25;5008912;28;20517;-78
2021/01/08 06:49:50;;;;;;;51.80;30.35;;;;;;;7.32;69.40;94253.03;4992555;28;20037;-80
2021/01/08 06:52:16;;;;;;;48.05;28.67;;;;;;;7.37;68.37;94263.53;5008096;28;20116;-78
2021/01/08 06:54:54;;;;;;;58.90;33.50;;;;;;;7.39;68.54;94282.97;5007276;28;20060;-78
2021/01/08 06:57:21;;;;;;;48.55;33.53;;;;;;;7.44;68.66;94275.31;5007460;28;20049;-77
2021/01/08 07:00:05;;;;;;;46.75;29.40;;;;;;;7.45;68.11;94276.09;5010994;28;20034;-79
2021/01/08 07:02:31;;;;;;;53.17;31.95;;;;;;;7.48;68.21;94265.31;5011646;28;20613;-78
2021/01/08 07:04:57;;;;;;;48.33;29.67;;;;;;;7.37;67.71;94253.97;5011755;28;20076;-78
2021/01/08 07:07:24;;;;;;;46.75;29.05;;;;;;;7.44;68.75;94269.38;4992976;28;20150;-77
2021/01/08 07:09:50;;;;;;;48.33;31.63;;;;;;;7.50;68.45;94263.31;4996034;28;20057;-79
2021/01/08 07:12:16;;;;;;;51.15;31.58;;;;;;;7.49;68.78;94279.84;5013693;28;20567;-78
2021/01/08 07:14:42;;;;;;;52.05;32.65;;;;;;;7.63;68.09;94273.41;4998210;28;20037;-76
2021/01/08 07:17:18;;;;;;;49.70;33.50;;;;;;;7.70;68.51;94281.06;4999107;28;20038;-78
2021/01/08 07:19:46;;;;;;;55.30;34.35;;;;;;;7.78;68.51;94281.50;5016940;28;20038;-77
2021/01/08 07:22:14;;;;;;;48.47;33.00;;;;;;;7.87;68.12;94281.94;5020855;28;20042;-79
2021/01/08 07:24:43;;;;;;;45.08;29.58;;;;;;;7.94;67.82;94274.03;5029975;28;20064;-79
2021/01/08 07:27:14;;;;;;;41.10;26.85;;;;;;;8.03;66.94;94270.09;5030313;28;20034;-78
2021/01/08 07:29:40;;;;;;;34.60;23.98;;;;;;;8.04;67.44;94263.91;5016053;28;20045;-78
2021/01/08 07:32:08;;;;;;;32.55;22.50;;;;;;;8.07;67.24;94260.84;5016014;28;20037;-78
2021/01/08 07:34:34;;;;;;;29.95;22.30;;;;;;;8.12;67.40;94250.56;5016057;28;20038;-78
2021/01/08 07:37:00;;;;;;;32.42;21.27;;;;;;;8.15;66.75;94257.91;5015360;28;20033;-78
2021/01/08 07:39:37;;;;;;;23.42;16.58;;;;;;;8.22;65.45;94250.78;5014566;28;20054;-78
2021/01/08 07:42:07;;;;;;;22.33;17.17;;;;;;;8.32;65.52;94235.44;5017648;28;20038;-78
2021/01/08 07:44:33;;;;;;;27.52;15.82;;;;;;;8.44;64.55;94243.16;5027031;28;20523;-78
2021/01/08 07:47:28;;;;;;;18.58;14.40;;;;;;;8.50;64.93;94241.47;5016281;28;20042;-78
2021/01/08 07:50:06;;;;;;;20.25;15.48;;;;;;;8.42;65.85;94227.88;5031289;28;20044;-77
2021/01/08 07:52:42;;;;;;;24.77;15.63;;;;;;;8.60;64.26;94215.72;5016489;28;20046;-78
2021/01/08 07:55:09;;;;;;;23.73;15.02;;;;;;;8.67;64.27;94231.94;5024767;23;20140;-79
2021/01/08 07:58:00;;;;;;;24.52;16.95;;;;;;;8.78;65.13;94220.69;5071525;28;20078;-78
2021/01/08 08:00:26;;;;;;;17.55;13.73;;;;;;;8.80;63.77;94225.66;5080216;28;20056;-78
2021/01/08 08:03:01;;;;;;;21.33;13.18;;;;;;;8.85;63.62;94208.38;5088919;28;20124;-78
2021/01/08 08:05:30;;;;;;;21.63;13.48;;;;;;;8.79;64.28;94204.13;5088152;28;20043;-78
2021/01/08 08:08:09;;;;;;;28.15;17.02;;;;;;;8.85;63.72;94205.78;5084294;28;20036;-78
2021/01/08 08:10:35;;;;;;;30.42;19.65;;;;;;;8.87;63.18;94198.56;5083333;28;20101;-78
2021/01/08 08:13:06;;;;;;;35.30;20.75;;;;;;;8.84;64.35;94206.81;5084452;28;20036;-78
2021/01/08 08:15:31;;;;;;;35.30;23.83;;;;;;;8.89;64.41;94196.50;5085057;28;20036;-78
2021/01/08 08:17:57;;;;;;;41.88;23.90;;;;;;;8.92;63.23;94188.25;5080103;28;20526;-78
2021/01/08 08:20:24;;;;;;;40.00;24.00;;;;;;;8.90;64.39;94187.69;5082895;28;20461;-79
2021/01/08 08:22:52;;;;;;;45.65;23.95;;;;;;;8.83;64.71;94189.69;5081538;28;20040;-79
2021/01/08 08:25:37;;;;;;;27.80;18.30;;;;;;;8.78;64.15;94201.75;5083622;28;20503;-79
2021/01/08 08:28:02;;;;;;;28.83;19.52;;;;;;;8.84;64.46;94186.06;5085522;28;20044;-77
2021/01/08 08:30:28;;;;;;;34.22;16.92;;;;;;;8.85;64.76;94195.41;5085189;28;20038;-79
2021/01/08 08:32:54;;;;;;;31.33;16.90;;;;;;;8.87;64.32;94175.22;5087348;28;20042;-79
2021/01/08 08:35:20;;;;;;;24.33;15.95;;;;;;;8.81;64.22;94206.50;5067122;28;20115;-79
2021/01/08 08:37:53;;;;;;;29.85;16.20;;;;;;;8.91;64.46;94180.72;5064976;28;20041;-79
2021/01/08 08:40:36;;;;;;;35.40;22.15;;;;;;;8.95;64.75;94177.44;5069357;28;20060;-79
2021/01/08 08:43:27;;;;;;;38.10;25.92;;;;;;;9.02;64.34;94179.84;5085965;28;20047;-79
2021/01/08 08:45:56;;;;;;;35.08;22.60;;;;;;;9.06;64.40;94199.09;5081189;28;20178;-78
2021/01/08 08:48:21;;;;;;;32.17;20.33;;;;;;;9.00;63.25;94174.13;5079878;28;20044;-79
2021/01/08 08:50:47;;;;;;;22.85;16.75;;;;;;;8.89;63.92;94173.16;5085921;28;20110;-79
2021/01/08 08:53:13;;;;;;;26.83;18.75;;;;;;;8.86;65.16;94178.03;5063674;28;20021;-79
2021/01/08 08:55:38;;;;;;;27.65;16.95;;;;;;;9.00;64.51;94189.69;5082635;28;20049;-78
2021/01/08 08:58:11;;;;;;;21.98;13.95;;;;;;;9.15;64.14;94176.94;5086038;28;20043;-79
2021/01/08 09:00:39;;;;;;;;;;;;;;;9.19;63.84;94177.25;5083174;28;20142;-79
2021/01/08 09:03:34;;;;;;;23.55;14.73;;;;;;;9.13;64.03;94184.16;5081950;28;19916;-79
2021/01/08 09:06:00;;;;;;;29.45;17.15;;;;;;;9.16;64.36;94165.53;5079129;28;20052;-79
2021/01/08 09:08:26;;;;;;;24.95;17.02;;;;;;;9.16;64.88;94169.94;5069058;28;20047;-78
2021/01/08 09:10:52;;;;;;;28.30;17.80;;;;;;;9.27;65.16;94158.66;5080377;28;20051;-79
2021/01/08 09:13:31;;;;;;;32.78;17.23;;;;;;;9.40;64.33;94157.53;5081748;28;20028;-77
2021/01/08 09:16:04;;;;;;;24.27;17.40;;;;;;;9.43;64.89;94152.63;5081386;28;20434;-79
2021/01/08 09:18:36;;;;;;;;;;;;;;;9.49;64.65;94153.50;5055847;28;20542;-79
2021/01/08 09:21:26;;;;;;;36.00;18.70;;;;;;;9.47;65.75;94153.75;5079683;28;19919;-79
2021/01/08 09:23:52;;;;;;;30.98;19.65;;;;;;;9.60;65.09;94158.59;5078939;28;20069;-79
2021/01/08 09:26:21;;;;;;;33.25;18.55;;;;;;;9.72;63.67;94158.44;5072474;28;20048;-79
2021/01/08 09:28:53;;;;;;;24.92;17.23;;;;;;;9.74;64.08;94147.81;5078009;28;20047;-79
2021/01/08 09:31:48;;;;;;;36.08;20.27;;;;;;;9.82;63.72;94147.41;5107233;28;20100;-79
2021/01/08 09:34:18;;;;;;;25.05;17.73;;;;;;;9.96;63.43;94148.59;5083523;28;20051;-79
2021/01/08 09:36:46;;;;;;;32.42;18.02;;;;;;;9.97;63.24;94157.97;5084229;28;20033;-79
2021/01/08 09:39:12;;;;;;;33.55;20.50;;;;;;;9.93;64.22;94152.47;5066732;28;20121;-79
2021/01/08 09:41:38;;;;;;;29.83;19.70;;;;;;;9.98;63.49;94132.78;5081282;28;20029;-79
2021/01/08 09:44:05;;;;;;;27.63;18.35;;;;;;;10.03;64.23;94140.63;5081753;28;20032;-78
2021/01/08 09:46:30;;;;;;;28.45;18.05;;;;;;;9.89;63.20;94133.19;5063757;28;20021;-79
2021/01/08 09:49:05;;;;;;;25.50;19.33;;;;;;;9.68;64.60;94143.59;5064028;28;20051;-79
2021/01/08 09:51:31;;;;;;;30.40;20.15;;;;;;;9.59;64.79;94125.06;5068771;28;20499;-79
2021/01/08 09:53:56;;;;;;;28.77;19.38;;;;;;;9.57;65.20;94117.53;5092637;28;20139;-79
2021/01/08 09:56:22;;;;;;;32.10;20.50;;;;;;;9.62;65.91;94125.38;5084939;28;20165;-79
2021/01/08 09:58:48;;;;;;;30.42;20.38;;;;;;;9.65;65.84;94105.94;5064581;28;20032;-79
2021/01/08 10:01:13;;;;;;;26.65;20.10;;;;;;;9.63;65.68;94110.59;5080183;28;20041;-78
2021/01/08 10:03:48;;;;;;;32.58;21.90;;;;;;;9.57;66.59;94101.16;5084666;28;20043;-78
2021/01/08 10:06:14;;;;;;;32.55;20.65;;;;;;;9.62;66.90;94107.22;5080951;28;20111;-78
2021/01/08 10:08:40;;;;;;;32.13;20.58;;;;;;;9.75;66.11;94097.47;5079965;28;20098;-78
2021/01/08 10:11:06;;;;;;;26.58;16.67;;;;;;;9.76;65.80;94080.84;5080757;28;20518;-78
2021/01/08 10:13:39;;;;;;;27.52;18.17;;;;;;;9.78;65.82;94076.22;5082346;28;20071;-78
2021/01/08 10:16:10;;;;;;;23.50;16.33;;;;;;;9.42;66.17;94072.44;5066666;28;20025;-80
2021/01/08 10:18:39;;;;;;;28.75;17.77;;;;;;;9.23;67.67;94087.53;5066194;28;20032;-78
2021/01/08 10:21:06;;;;;;;24.23;17.00;;;;;;;9.20;67.53;94090.63;5057074;28;20092;-78
2021/01/08 10:23:42;;;;;;;27.48;18.17;;;;;;;9.13;68.16;94070.06;5080085;28;20067;-78
2021/01/08 10:26:18;;;;;;;26.80;17.83;;;;;;;9.12;68.36;94070.28;5064449;28;20064;-79
2021/01/08 10:28:56;;;;;;;20.05;15.00;;;;;;;8.98;68.55;94068.03;5065626;28;20096;-78
2021/01/08 10:31:22;;;;;;;28.92;14.05;;;;;;;8.83;68.63;94080.81;5079235;28;20044;-79
2021/01/08 10:33:56;;;;;;;21.65;14.45;;;;;;;8.77;68.96;94060.22;5065963;28;20012;-79
2021/01/08 10:36:29;;;;;;;18.02;13.30;;;;;;;8.84;68.67;94069.41;5091322;28;20028;-79
2021/01/08 10:39:00;;;;;;;21.23;12.25;;;;;;;8.86;69.05;94064.75;5074135;28;20040;-78
2021/01/08 10:41:28;;;;;;;15.70;12.23;;;;;;;8.61;69.53;94051.44;5054953;28;20495;-78
2021/01/08 10:43:53;;;;;;;21.55;13.40;;;;;;;8.59;70.41;94069.03;5081524;28;20094;-78
2021/01/08 10:46:21;;;;;;;19.33;12.93;;;;;;;8.79;70.17;94063.38;5081885;28;20027;-78
2021/01/08 10:48:47;;;;;;;17.55;11.20;;;;;;;8.75;69.54;94029.34;5084779;28;20044;-78
2021/01/08 10:51:12;;;;;;;20.58;13.27;;;;;;;8.30;71.23;94040.63;5066362;28;20028;-78
2021/01/08 10:53:38;;;;;;;20.15;13.55;;;;;;;8.23;73.18;94034.78;5083648;28;20560;-78
2021/01/08 10:56:04;;;;;;;24.45;16.70;;;;;;;8.23;73.41;94050.34;5086172;28;20035;-78
2021/01/08 10:58:30;;;;;;;34.65;20.20;;;;;;;8.30;73.18;94040.63;5085285;28;20029;-78
2021/01/08 11:00:55;;;;;;;30.00;21.25;;;;;;;8.47;72.44;94029.50;5073688;28;20435;-78
2021/01/08 11:03:21;;;;;;;31.30;21.25;;;;;;;8.48;72.73;94036.25;5084119;28;20043;-78
2021/01/08 11:05:46;;;;;;;42.22;24.48;;;;;;;8.49;71.77;94017.09;5069821;28;20036;-78
2021/01/08 11:08:12;;;;;;;37.30;23.55;;;;;;;8.39;71.36;94028.84;5075142;28;20040;-78
2021/01/08 11:10:38;;;;;;;35.38;22.13;;;;;;;8.55;71.77;94016.91;5082110;28;20032;-78
2021/01/08 11:13:04;;;;;;;35.80;22.17;;;;;;;8.82;70.99;94003.28;5083498;28;20032;-78
2021/01/08 11:15:29;;;;;;;30.30;21.52;;;;;;;8.99;70.48;94007.38;5084984;28;20031;-79
2021/01/08 11:18:23;;;;;;;34.47;22.33;;;;;;;9.16;68.90;93980.59;5084497;28;20021;-78
2021/01/08 11:20:49;;;;;;;26.90;19.20;;;;;;;9.22;67.69;93979.59;5082783;28;20032;-78
2021/01/08 11:23:14;;;;;;;26.67;19.00;;;;;;;9.06;68.59;93986.44;5084381;28;20024;-78
2021/01/08 11:25:41;;;;;;;28.95;19.30;;;;;;;9.08;68.48;93968.03;5088280;28;20040;-78
2021/01/08 11:28:07;;;;;;;27.90;21.10;;;;;;;9.18;68.66;93973.34;5080654;28;20035;-77
2021/01/08 11:30:32;;;;;;;28.00;18.52;;;;;;;9.40;67.32;93974.09;5082416;28;20032;-79
2021/01/08 11:32:58;;;;;;;26.02;18.33;;;;;;;9.52;66.04;93979.94;5067649;28;20418;-78
2021/01/08 11:35:23;;;;;;;20.65;17.38;;;;;;;9.47;66.05;93977.28;5079752;28;20034;-78
2021/01/08 11:37:49;;;;;;;25.77;17.48;;;;;;;9.47;66.43;93974.69;5063747;28;20698;-77